Time;durP1;ratioP1;P1;durP2;ratioP2;P2;SDS_P1;SDS_P2;PMS_P1;PMS_P2;Temp;Humidity;BMP_temperature;BMP_pressure;BME280_temperature;BME280_humidity;BME280_pressure;Samples;Min_cycle;Max_cycle;Signal;HPM_P1;HPM_P2
2023/03/20 00:00:40;;;;;;;11.52;5.70;;;7.40;99.90;;;;;;5039103;28;20550;-81
2023/03/20 00:03:05;;;;;;;10.82;6.03;;;7.40;99.90;;;;;;5047239;28;20131;-81
2023/03/20 00:05:32;;;;;;;9.85;5.53;;;7.40;99.90;;;;;;5031992;28;20204;-82
2023/03/20 00:07:57;;;;;;;11.38;5.43;;;7.40;99.90;;;;;;5026938;28;20048;-82
2023/03/20 00:10:35;;;;;;;12.35;6.00;;;7.50;99.90;;;;;;5034529;28;20153;-81
2023/03/20 00:13:02;;;;;;;11.77;6.53;;;7.50;99.90;;;;;;5046204;28;20041;-81
2023/03/20 00:15:35;;;;;;;11.90;6.70;;;7.60;99.90;;;;;;5038665;28;20032;-81
2023/03/20 00:18:00;;;;;;;11.25;5.90;;;7.60;99.90;;;;;;5030665;28;20136;-81
2023/03/20 00:20:27;;;;;;;13.50;6.50;;;7.60;99.90;;;;;;5020766;28;20116;-81
2023/03/20 00:22:53;;;;;;;13.50;6.38;;;7.60;99.90;;;;;;5068747;28;20049;-81
2023/03/20 00:25:23;;;;;;;15.38;6.40;;;7.60;99.90;;;;;;5041417;28;20045;-80
2023/03/20 00:27:49;;;;;;;13.57;6.20;;;7.60;99.90;;;;;;5028886;28;20087;-81
2023/03/20 00:30:28;;;;;;;12.38;6.03;;;7.70;99.90;;;;;;5034368;28;20048;-81
2023/03/20 00:32:55;;;;;;;12.05;6.47;;;7.60;99.90;;;;;;5029332;28;20037;-81
2023/03/20 00:35:30;;;;;;;12.68;7.07;;;7.60;99.90;;;;;;5020738;28;20048;-80
2023/03/20 00:37:57;;;;;;;17.50;6.82;;;7.60;99.90;;;;;;5048790;28;20037;-82
2023/03/20 00:40:31;;;;;;;13.90;6.53;;;7.60;99.90;;;;;;5033184;28;20033;-81
2023/03/20 00:42:59;;;;;;;14.55;6.45;;;7.60;99.90;;;;;;5014389;28;20033;-81
2023/03/20 00:45:26;;;;;;;9.05;6.15;;;7.60;99.90;;;;;;5047789;28;20033;-81
2023/03/20 00:47:52;;;;;;;14.45;6.63;;;7.60;99.90;;;;;;5026574;28;20042;-81
2023/03/20 00:50:22;;;;;;;15.73;6.03;;;7.60;99.90;;;;;;5032510;28;20044;-81
2023/03/20 00:52:52;;;;;;;12.70;5.78;;;7.60;99.90;;;;;;5050825;28;20044;-82
2023/03/20 00:55:20;;;;;;;13.50;6.43;;;7.60;99.90;;;;;;5032961;28;20729;-81
2023/03/20 00:58:01;;;;;;;11.40;6.13;;;7.70;99.90;;;;;;5030497;28;20448;-81
2023/03/20 01:00:35;;;;;;;15.02;5.53;;;7.70;99.90;;;;;;5047821;28;20149;-80
2023/03/20 01:03:02;;;;;;;;;;;7.70;99.90;;;;;;5040554;28;20485;-81
2023/03/20 01:05:28;;;;;;;19.58;6.20;;;7.70;99.90;;;;;;5047516;28;20415;-83
2023/03/20 01:07:55;;;;;;;19.58;6.68;;;7.70;99.90;;;;;;5017944;28;20037;-81
2023/03/20 01:10:25;;;;;;;14.55;6.20;;;7.70;99.90;;;;;;5043065;28;20463;-81
2023/03/20 01:12:51;;;;;;;14.85;6.05;;;7.70;99.90;;;;;;5031308;28;20075;-82
2023/03/20 01:15:21;;;;;;;16.48;5.72;;;7.70;99.90;;;;;;5047458;28;20416;-81
2023/03/20 01:17:47;;;;;;;13.40;6.40;;;7.70;99.90;;;;;;5052672;28;20032;-81
2023/03/20 01:20:20;;;;;;;17.13;6.78;;;7.70;99.90;;;;;;5051962;28;20034;-81
2023/03/20 01:22:46;;;;;;;15.00;6.30;;;7.80;99.90;;;;;;5064235;28;20076;-81
2023/03/20 01:25:11;;;;;;;12.57;6.20;;;7.80;99.90;;;;;;5030048;28;20033;-82
2023/03/20 01:27:38;;;;;;;14.38;7.18;;;7.80;99.90;;;;;;5037860;28;20487;-82
2023/03/20 01:30:16;;;;;;;18.92;6.50;;;7.80;99.90;;;;;;5031847;28;20118;-81
2023/03/20 01:32:42;;;;;;;16.02;7.05;;;7.80;99.90;;;;;;5034516;28;20074;-80
2023/03/20 01:35:12;;;;;;;17.63;5.70;;;7.80;99.90;;;;;;5037821;28;20049;-81
2023/03/20 01:37:37;;;;;;;15.93;6.95;;;7.80;99.90;;;;;;5052132;28;20049;-81
2023/03/20 01:40:10;;;;;;;13.15;5.82;;;7.80;99.90;;;;;;5034765;28;20037;-81
2023/03/20 01:42:35;;;;;;;16.02;5.95;;;7.80;99.90;;;;;;5029984;28;20041;-81
2023/03/20 01:45:14;;;;;;;16.90;6.47;;;7.80;99.90;;;;;;5030229;28;20048;-81
2023/03/20 01:47:41;;;;;;;12.02;5.45;;;7.80;99.90;;;;;;5039128;28;20041;-81
2023/03/20 01:50:13;;;;;;;15.98;6.55;;;7.90;99.90;;;;;;5032489;28;20044;-81
2023/03/20 01:52:39;;;;;;;19.77;6.85;;;7.80;99.90;;;;;;5049767;28;20048;-81
2023/03/20 01:55:05;;;;;;;17.95;7.07;;;7.90;99.90;;;;;;5002179;28;20067;-81
2023/03/20 01:57:30;;;;;;;16.88;6.28;;;7.90;99.90;;;;;;5050932;28;20570;-81
2023/03/20 02:00:10;;;;;;;17.05;6.10;;;7.90;99.90;;;;;;5025699;28;20038;-81
2023/03/20 02:02:38;;;;;;;16.67;6.13;;;7.90;99.90;;;;;;5050159;28;20033;-81
2023/03/20 02:05:09;;;;;;;12.30;6.00;;;7.90;99.90;;;;;;5047546;28;20048;-80
2023/03/20 02:07:36;;;;;;;15.98;6.20;;;7.90;99.90;;;;;;5045018;28;20055;-81
2023/03/20 02:10:12;;;;;;;14.38;6.82;;;7.90;99.90;;;;;;5048944;28;20393;-81
2023/03/20 02:12:38;;;;;;;13.35;7.10;;;7.90;99.90;;;;;;5047210;28;20041;-81
2023/03/20 02:15:06;;;;;;;15.38;7.25;;;8.00;99.90;;;;;;5050815;22;20049;-56
2023/03/20 02:17:32;;;;;;;17.27;7.40;;;8.00;99.90;;;;;;5037128;28;20099;-56
2023/03/20 02:20:20;;;;;;;25.23;9.18;;;8.00;99.90;;;;;;5031412;28;20045;-56
2023/03/20 02:22:52;;;;;;;23.40;8.73;;;8.00;99.90;;;;;;5027788;28;20492;-56
2023/03/20 02:25:36;;;;;;;20.27;7.85;;;8.00;99.90;;;;;;5038463;28;20452;-56
2023/03/20 02:28:11;;;;;;;;;;;7.90;99.90;;;;;;5036454;28;20046;-57
2023/03/20 02:31:01;;;;;;;15.88;7.65;;;7.90;99.90;;;;;;5035304;28;19917;-56
2023/03/20 02:33:43;;;;;;;17.65;7.78;;;7.90;99.90;;;;;;5039445;28;20039;-56
2023/03/20 02:36:40;;;;;;;19.42;8.75;;;8.00;99.90;;;;;;5045033;28;20037;-56
2023/03/20 02:39:18;;;;;;;18.80;7.97;;;7.90;99.90;;;;;;5043444;28;20423;-56
2023/03/20 02:42:10;;;;;;;16.65;7.32;;;7.90;99.90;;;;;;5045413;28;20450;-56
2023/03/20 02:45:15;;;;;;;17.58;8.90;;;7.90;99.90;;;;;;5041224;28;20131;-56
2023/03/20 02:47:46;;;;;;;;;;;7.90;99.90;;;;;;5045248;28;20094;-56
2023/03/20 02:50:18;;;;;;;15.23;7.43;;;7.90;99.90;;;;;;5044411;28;19923;-56
2023/03/20 02:53:08;;;;;;;19.83;9.00;;;7.90;99.90;;;;;;5038408;28;20228;-55
2023/03/20 02:55:50;;;;;;;15.40;7.72;;;7.90;99.90;;;;;;5042482;28;20109;-55
2023/03/20 02:58:28;;;;;;;15.10;7.43;;;8.00;99.90;;;;;;5023760;28;20530;-55
2023/03/20 03:01:15;;;;;;;13.18;7.30;;;8.00;99.90;;;;;;5045607;28;20041;-55
2023/03/20 03:03:54;;;;;;;15.95;7.57;;;8.00;99.90;;;;;;5031028;28;20406;-56
2023/03/20 03:06:28;;;;;;;16.90;8.10;;;8.00;99.90;;;;;;5028955;28;20103;-56
2023/03/20 03:09:04;;;;;;;17.40;8.32;;;8.00;99.90;;;;;;5043118;28;20160;-55
2023/03/20 03:11:34;;;;;;;18.35;8.25;;;8.00;99.90;;;;;;5045548;28;20068;-55
2023/03/20 03:14:01;;;;;;;16.92;8.00;;;8.00;99.90;;;;;;5026440;28;20041;-55
2023/03/20 03:16:34;;;;;;;20.95;8.80;;;8.00;99.90;;;;;;5035297;28;20067;-55
2023/03/20 03:19:29;;;;;;;13.55;7.78;;;8.00;99.90;;;;;;5051589;28;20559;-55
2023/03/20 03:21:55;;;;;;;18.45;8.18;;;8.00;99.90;;;;;;5035845;28;20061;-55
2023/03/20 03:24:30;;;;;;;15.63;8.02;;;8.00;99.90;;;;;;5041409;28;20028;-55
2023/03/20 03:26:58;;;;;;;16.35;7.38;;;8.00;99.90;;;;;;5015402;28;20068;-56
2023/03/20 03:29:27;;;;;;;13.45;7.40;;;8.00;99.90;;;;;;5030826;28;20071;-56
2023/03/20 03:31:53;;;;;;;13.25;7.13;;;8.00;99.90;;;;;;5027236;28;20075;-56
2023/03/20 03:34:22;;;;;;;12.88;6.63;;;8.00;99.90;;;;;;5032362;28;20072;-56
2023/03/20 03:37:01;;;;;;;13.23;6.78;;;8.10;99.90;;;;;;5034655;28;20414;-55
2023/03/20 03:39:47;;;;;;;12.40;7.03;;;8.10;99.90;;;;;;5043412;28;20139;-56
2023/03/20 03:42:43;;;;;;;13.05;6.43;;;8.10;99.90;;;;;;5031599;28;20044;-56
2023/03/20 03:45:17;;;;;;;9.65;6.30;;;8.10;99.90;;;;;;5040082;28;20040;-56
2023/03/20 03:47:55;;;;;;;15.50;6.28;;;8.10;99.90;;;;;;5047330;28;20043;-55
2023/03/20 03:50:30;;;;;;;12.32;6.72;;;8.10;99.90;;;;;;5045609;28;21581;-54
2023/03/20 03:53:01;;;;;;;13.75;6.85;;;8.10;99.90;;;;;;5040273;28;20052;-56
2023/03/20 03:55:32;;;;;;;12.73;6.32;;;8.10;99.90;;;;;;5040752;28;20045;-55
2023/03/20 03:58:12;;;;;;;14.20;7.55;;;8.10;99.90;;;;;;5036007;28;20041;-56
2023/03/20 04:00:42;;;;;;;15.88;7.45;;;8.10;99.90;;;;;;5039915;28;20086;-54
2023/03/20 04:03:09;;;;;;;15.27;8.82;;;8.10;99.90;;;;;;5040659;28;20040;-55
2023/03/20 04:05:40;;;;;;;17.92;8.60;;;8.10;99.90;;;;;;5047272;28;20041;-55
2023/03/20 04:08:06;;;;;;;15.95;9.48;;;8.10;99.90;;;;;;5031785;28;20091;-55
2023/03/20 04:10:32;;;;;;;18.42;9.23;;;8.10;99.90;;;;;;5027230;28;20094;-55
2023/03/20 04:12:58;;;;;;;16.70;10.27;;;8.10;99.90;;;;;;5036904;28;20506;-55
2023/03/20 04:15:26;;;;;;;19.30;10.23;;;8.10;99.90;;;;;;5029659;28;20037;-56
2023/03/20 04:17:52;;;;;;;21.38;11.50;;;8.10;99.90;;;;;;5049347;28;20445;-55
2023/03/20 04:20:18;;;;;;;19.35;11.10;;;8.10;99.90;;;;;;5046024;28;20086;-56
2023/03/20 04:22:44;;;;;;;20.45;10.65;;;8.10;99.90;;;;;;5030043;28;20041;-54
2023/03/20 04:25:19;;;;;;;21.42;11.23;;;8.10;99.90;;;;;;5034285;28;20340;-55
2023/03/20 04:27:45;;;;;;;22.05;12.05;;;8.10;99.90;;;;;;5046159;28;20052;-53
2023/03/20 04:30:11;;;;;;;19.25;11.70;;;8.00;99.90;;;;;;5030169;28;20376;-56
2023/03/20 04:32:37;;;;;;;22.67;10.75;;;8.00;99.90;;;;;;5036019;28;20052;-55
2023/03/20 04:35:03;;;;;;;22.40;10.50;;;8.10;99.90;;;;;;5049084;28;20045;-55
2023/03/20 04:37:29;;;;;;;20.95;11.18;;;8.10;99.90;;;;;;5050317;28;20041;-55
2023/03/20 04:39:55;;;;;;;23.40;11.40;;;8.00;99.90;;;;;;5028414;28;20033;-55
2023/03/20 04:42:21;;;;;;;23.38;11.38;;;8.00;99.90;;;;;;5035668;28;20040;-56
2023/03/20 04:44:46;;;;;;;21.42;10.85;;;8.00;99.90;;;;;;5025746;28;20032;-56
2023/03/20 04:47:12;;;;;;;23.70;11.10;;;8.00;99.90;;;;;;5044250;28;20414;-53
2023/03/20 04:49:38;;;;;;;22.73;12.07;;;8.00;99.90;;;;;;5046897;28;20041;-55
2023/03/20 04:52:03;;;;;;;21.65;11.02;;;8.00;99.90;;;;;;5031048;28;20044;-56
2023/03/20 04:54:29;;;;;;;23.55;12.52;;;8.00;99.90;;;;;;5023542;28;20124;-54
2023/03/20 04:56:55;;;;;;;25.10;12.88;;;8.00;99.90;;;;;;5019523;28;20096;-55
2023/03/20 04:59:21;;;;;;;28.15;13.48;;;8.00;99.90;;;;;;5035655;28;20114;-54
2023/03/20 05:01:47;;;;;;;25.48;12.98;;;8.00;99.90;;;;;;5040217;28;20278;-55
2023/03/20 05:04:13;;;;;;;27.83;14.38;;;8.00;99.90;;;;;;5035650;28;20037;-54
2023/03/20 05:06:39;;;;;;;24.63;13.82;;;8.00;99.90;;;;;;5041682;28;20041;-55
2023/03/20 05:09:05;;;;;;;24.90;14.70;;;7.90;99.90;;;;;;5044178;28;20032;-55
2023/03/20 05:11:31;;;;;;;32.88;15.90;;;8.00;99.90;;;;;;5034205;28;20127;-54
2023/03/20 05:13:56;;;;;;;28.75;14.63;;;7.90;99.90;;;;;;5034356;28;20408;-55
2023/03/20 05:16:22;;;;;;;28.70;15.27;;;7.90;99.90;;;;;;5028264;28;20036;-55
2023/03/20 05:18:48;;;;;;;29.58;14.95;;;8.00;99.90;;;;;;5043233;28;20640;-55
2023/03/20 05:21:14;;;;;;;26.85;14.55;;;7.90;99.90;;;;;;5006903;28;20499;-56
2023/03/20 05:23:40;;;;;;;26.85;15.48;;;8.00;99.90;;;;;;5056351;28;20377;-56
2023/03/20 05:26:06;;;;;;;28.52;14.95;;;7.90;99.90;;;;;;5042265;28;20056;-53
2023/03/20 05:28:32;;;;;;;25.55;13.70;;;7.90;99.90;;;;;;5047027;28;20036;-56
2023/03/20 05:30:58;;;;;;;26.60;14.50;;;7.90;99.90;;;;;;5043197;28;20037;-56
2023/03/20 05:33:23;;;;;;;27.55;15.50;;;7.90;99.90;;;;;;5029086;28;20483;-56
2023/03/20 05:35:49;;;;;;;26.95;13.90;;;7.90;99.90;;;;;;5028230;28;20041;-56
2023/03/20 05:38:15;;;;;;;22.95;13.75;;;7.90;99.90;;;;;;5035995;28;20215;-54
2023/03/20 05:40:41;;;;;;;27.15;14.88;;;7.90;99.90;;;;;;5044835;28;20090;-55
2023/03/20 05:43:07;;;;;;;26.38;14.95;;;7.90;99.90;;;;;;5031760;28;20049;-55
2023/03/20 05:45:33;;;;;;;31.80;15.88;;;7.90;99.90;;;;;;5044837;28;20125;-56
2023/03/20 05:47:58;;;;;;;24.75;14.23;;;7.90;99.90;;;;;;5035037;28;20452;-55
2023/03/20 05:50:24;;;;;;;30.15;15.60;;;7.90;99.90;;;;;;5046808;28;20048;-55
2023/03/20 05:52:50;;;;;;;28.90;14.07;;;7.90;99.90;;;;;;5046713;28;20048;-56
2023/03/20 05:55:16;;;;;;;32.58;15.32;;;7.90;99.90;;;;;;5045700;28;20048;-56
2023/03/20 05:57:41;;;;;;;27.73;14.63;;;7.90;99.90;;;;;;5046238;28;20072;-56
2023/03/20 06:00:09;;;;;;;26.55;14.52;;;7.90;99.90;;;;;;5047462;28;20044;-56
2023/03/20 06:02:35;;;;;;;30.08;15.00;;;7.90;99.90;;;;;;5041555;28;20084;-56
2023/03/20 06:05:02;;;;;;;25.30;15.90;;;7.90;99.90;;;;;;5018084;28;20395;-56
2023/03/20 06:07:28;;;;;;;24.60;16.00;;;7.90;99.90;;;;;;5030976;28;20382;-56
2023/03/20 06:09:54;;;;;;;25.58;15.73;;;7.90;99.90;;;;;;5037875;28;20139;-55
2023/03/20 06:12:20;;;;;;;30.77;15.73;;;7.90;99.90;;;;;;5023631;28;20083;-55
2023/03/20 06:14:46;;;;;;;29.15;16.67;;;7.90;99.90;;;;;;5050348;28;20461;-54
2023/03/20 06:17:11;;;;;;;27.52;15.48;;;7.90;99.90;;;;;;5035107;28;20033;-56
2023/03/20 06:19:37;;;;;;;29.15;15.50;;;7.90;99.90;;;;;;5009588;28;20059;-54
2023/03/20 06:22:04;;;;;;;31.30;14.93;;;7.90;99.90;;;;;;5039044;28;20103;-51
2023/03/20 06:24:29;;;;;;;27.10;15.50;;;8.00;99.90;;;;;;5026292;28;20238;-53
2023/03/20 06:26:55;;;;;;;28.10;15.63;;;8.00;99.90;;;;;;5048433;28;20036;-53
2023/03/20 06:29:21;;;;;;;30.38;15.98;;;8.00;99.90;;;;;;5045293;28;20462;-51
2023/03/20 06:31:47;;;;;;;25.88;15.30;;;8.00;99.90;;;;;;5040603;28;20041;-51
2023/03/20 06:34:13;;;;;;;27.30;15.40;;;8.00;99.90;;;;;;5053172;28;20314;-52
2023/03/20 06:36:40;;;;;;;27.95;15.10;;;8.00;99.90;;;;;;5025992;28;20068;-53
2023/03/20 06:39:06;;;;;;;30.40;16.38;;;8.00;99.90;;;;;;5047055;28;20545;-54
2023/03/20 06:41:32;;;;;;;24.55;15.32;;;8.00;99.90;;;;;;5038693;28;20596;-51
2023/03/20 06:43:58;;;;;;;32.13;17.13;;;8.00;99.90;;;;;;5025579;28;20197;-53
2023/03/20 06:46:24;;;;;;;27.73;15.15;;;8.00;99.90;;;;;;5031813;28;20068;-51
2023/03/20 06:48:50;;;;;;;25.92;15.25;;;8.00;99.90;;;;;;5035246;28;20483;-52
2023/03/20 06:51:17;;;;;;;32.88;16.23;;;8.00;99.90;;;;;;5007730;28;20124;-54
2023/03/20 06:53:43;;;;;;;33.90;17.02;;;8.00;99.90;;;;;;5040934;28;20045;-51
2023/03/20 06:56:10;;;;;;;32.00;16.48;;;8.10;99.90;;;;;;5018795;28;20033;-55
2023/03/20 06:58:36;;;;;;;28.10;15.45;;;8.10;99.90;;;;;;5017915;28;20512;-52
2023/03/20 07:01:08;;;;;;;36.42;16.63;;;8.10;99.90;;;;;;5033922;28;20049;-55
2023/03/20 07:03:34;;;;;;;33.22;17.13;;;8.10;99.90;;;;;;5041625;28;20408;-54
2023/03/20 07:06:00;;;;;;;27.45;16.75;;;8.10;99.90;;;;;;5027478;28;20045;-55
2023/03/20 07:08:25;;;;;;;26.52;16.10;;;8.20;99.90;;;;;;5040810;28;20037;-51
2023/03/20 07:10:52;;;;;;;27.92;16.48;;;8.20;99.90;;;;;;5021505;28;20041;-55
2023/03/20 07:13:18;;;;;;;31.45;17.63;;;8.20;99.90;;;;;;5016944;28;20044;-53
2023/03/20 07:15:43;;;;;;;33.03;18.85;;;8.20;99.90;;;;;;5042861;28;20515;-54
2023/03/20 07:18:09;;;;;;;31.27;18.38;;;8.30;99.90;;;;;;5042405;28;20120;-53
2023/03/20 07:20:35;;;;;;;36.20;18.80;;;8.30;99.90;;;;;;5026979;28;20044;-54
2023/03/20 07:23:01;;;;;;;32.33;18.27;;;8.40;99.90;;;;;;5026447;28;20056;-56
2023/03/20 07:25:27;;;;;;;34.83;18.10;;;8.40;99.90;;;;;;5036213;28;20095;-54
2023/03/20 07:27:53;;;;;;;30.75;17.10;;;8.40;99.90;;;;;;5040656;28;20041;-55
2023/03/20 07:30:19;;;;;;;32.60;17.00;;;8.40;99.90;;;;;;5031633;28;20476;-54
2023/03/20 07:32:45;;;;;;;39.58;18.60;;;8.40;99.90;;;;;;5038930;28;20041;-56
2023/03/20 07:35:11;;;;;;;34.50;18.05;;;8.40;99.90;;;;;;5035855;28;20132;-55
2023/03/20 07:37:37;;;;;;;34.20;18.02;;;8.40;99.90;;;;;;5041751;28;20033;-57
2023/03/20 07:40:03;;;;;;;31.20;16.88;;;8.40;99.90;;;;;;5026541;28;20041;-57
2023/03/20 07:42:29;;;;;;;33.10;17.42;;;8.40;99.90;;;;;;5052273;28;20131;-56
2023/03/20 07:44:54;;;;;;;31.75;17.48;;;8.40;99.90;;;;;;5041847;28;20563;-56
2023/03/20 07:47:20;;;;;;;29.48;17.92;;;8.40;99.90;;;;;;5047520;28;20039;-54
2023/03/20 07:49:46;;;;;;;33.15;17.25;;;8.40;99.90;;;;;;5044699;28;20512;-52
2023/03/20 07:52:12;;;;;;;33.75;17.92;;;8.40;99.90;;;;;;5043503;28;20180;-52
2023/03/20 07:54:38;;;;;;;32.88;17.95;;;8.40;99.90;;;;;;5045276;28;20243;-54
2023/03/20 07:57:04;;;;;;;27.98;16.98;;;8.40;99.90;;;;;;5044453;28;20110;-51
2023/03/20 07:59:30;;;;;;;29.10;16.05;;;8.50;99.90;;;;;;5034414;28;20124;-52
2023/03/20 08:01:56;;;;;;;33.40;17.40;;;8.50;99.90;;;;;;5036966;28;20124;-51
2023/03/20 08:04:22;;;;;;;28.58;16.23;;;8.50;99.90;;;;;;5040334;28;20048;-51
2023/03/20 08:06:49;;;;;;;31.98;17.17;;;8.60;99.90;;;;;;5041290;28;20041;-51
2023/03/20 08:09:15;;;;;;;27.02;15.48;;;8.60;99.90;;;;;;5053186;28;20491;-52
2023/03/20 08:11:41;;;;;;;29.55;16.55;;;8.60;99.90;;;;;;5040768;28;20206;-56
2023/03/20 08:14:19;;;;;;;28.15;15.38;;;8.60;99.90;;;;;;5045503;22;20067;-81
2023/03/20 08:16:44;;;;;;;27.60;15.82;;;8.60;99.90;;;;;;5038449;28;20067;-84
2023/03/20 08:19:10;;;;;;;26.70;15.10;;;8.70;99.90;;;;;;5040587;28;20124;-83
2023/03/20 08:21:36;;;;;;;25.70;14.98;;;8.70;99.90;;;;;;5023584;28;20059;-83
2023/03/20 08:24:01;;;;;;;24.42;14.65;;;8.70;99.90;;;;;;5022089;28;20043;-83
2023/03/20 08:26:27;;;;;;;25.75;13.43;;;8.60;99.90;;;;;;5034378;28;20120;-83
2023/03/20 08:28:57;;;;;;;32.47;14.55;;;8.70;99.90;;;;;;5046073;28;20122;-83
2023/03/20 08:31:22;;;;;;;25.60;14.10;;;8.70;99.90;;;;;;5055935;22;20043;-56
2023/03/20 08:33:48;;;;;;;26.40;13.90;;;8.70;99.90;;;;;;5067088;28;20044;-55
2023/03/20 08:36:15;;;;;;;23.85;14.02;;;8.50;99.90;;;;;;5085876;28;20052;-56
2023/03/20 08:38:42;;;;;;;22.95;13.35;;;8.80;99.90;;;;;;5083789;28;20391;-58
2023/03/20 08:41:07;;;;;;;24.35;12.40;;;8.80;99.90;;;;;;5087356;28;20090;-58
2023/03/20 08:43:33;;;;;;;23.23;12.73;;;8.90;99.90;;;;;;5080395;28;20044;-57
2023/03/20 08:45:59;;;;;;;20.67;12.82;;;8.80;99.90;;;;;;5080345;28;20044;-58
2023/03/20 08:48:25;;;;;;;23.52;12.43;;;8.90;99.90;;;;;;5084295;28;20096;-55
2023/03/20 08:50:51;;;;;;;24.05;12.57;;;8.90;99.90;;;;;;5057246;28;20045;-58
2023/03/20 08:53:17;;;;;;;24.98;13.07;;;9.00;99.90;;;;;;5081521;28;20051;-58
2023/03/20 08:55:50;;;;;;;21.77;13.07;;;9.00;99.90;;;;;;5061592;28;20032;-57
2023/03/20 08:58:17;;;;;;;26.90;14.13;;;9.00;99.90;;;;;;5078314;28;20036;-59
2023/03/20 09:00:43;;;;;;;22.77;12.38;;;9.10;99.90;;;;;;5062513;28;20044;-58
2023/03/20 09:03:17;;;;;;;21.80;12.80;;;9.10;99.90;;;;;;5077717;28;20036;-58
2023/03/20 09:05:44;;;;;;;21.60;12.55;;;9.10;99.90;;;;;;5071132;28;20063;-58
2023/03/20 09:08:10;;;;;;;22.92;12.10;;;9.10;99.90;;;;;;5081592;28;20119;-57
2023/03/20 09:10:37;;;;;;;20.02;12.15;;;9.20;99.90;;;;;;5079551;28;20124;-58
2023/03/20 09:13:02;;;;;;;27.48;12.93;;;9.20;99.90;;;;;;5083696;28;20051;-58
2023/03/20 09:15:28;;;;;;;21.30;12.43;;;9.20;99.90;;;;;;5064074;28;20048;-60
2023/03/20 09:17:54;;;;;;;19.10;11.73;;;9.40;99.90;;;;;;5047014;28;20128;-58
2023/03/20 09:20:20;;;;;;;24.02;12.48;;;9.40;99.90;;;;;;5082650;28;20050;-57
2023/03/20 09:22:46;;;;;;;28.50;11.90;;;9.50;99.90;;;;;;5039698;28;20437;-59
2023/03/20 09:25:12;;;;;;;23.15;11.27;;;9.50;99.90;;;;;;5047998;28;20036;-57
2023/03/20 09:27:38;;;;;;;24.92;12.02;;;9.50;99.90;;;;;;5082662;28;20040;-58
2023/03/20 09:30:06;;;;;;;20.88;11.77;;;9.50;99.90;;;;;;5049840;28;20589;-58
2023/03/20 09:32:33;;;;;;;21.75;12.18;;;9.60;99.90;;;;;;5079776;28;20072;-59
2023/03/20 09:35:00;;;;;;;18.20;11.40;;;9.60;99.90;;;;;;5077232;28;20055;-56
2023/03/20 09:37:25;;;;;;;23.40;12.52;;;9.70;99.90;;;;;;5044003;28;20057;-55
2023/03/20 09:39:52;;;;;;;21.63;12.18;;;9.70;99.90;;;;;;5077091;28;20036;-58
2023/03/20 09:42:42;;;;;;;27.92;10.60;;;9.70;99.90;;;;;;5068742;28;20048;-57
2023/03/20 09:45:19;;;;;;;20.67;11.40;;;9.70;99.90;;;;;;5080178;28;20375;-57
2023/03/20 09:47:57;;;;;;;26.27;11.90;;;9.70;99.90;;;;;;5077352;28;20076;-58
2023/03/20 09:50:54;;;;;;;21.40;11.02;;;9.80;99.90;;;;;;5075439;28;20048;-57
2023/03/20 09:53:37;;;;;;;26.40;11.85;;;9.80;99.90;;;;;;5071658;28;20378;-57
2023/03/20 09:56:09;;;;;;;21.75;11.15;;;9.80;99.90;;;;;;5058338;28;20565;-58
2023/03/20 09:58:37;;;;;;;20.75;11.93;;;9.80;99.90;;;;;;5081091;28;20043;-57
2023/03/20 10:01:07;;;;;;;26.42;12.65;;;9.80;99.90;;;;;;5056524;28;20039;-54
2023/03/20 10:03:43;;;;;;;23.95;12.13;;;9.80;99.90;;;;;;5068714;28;20040;-58
2023/03/20 10:06:14;;;;;;;19.90;12.07;;;9.80;99.90;;;;;;5076563;28;20033;-56
2023/03/20 10:08:41;;;;;;;23.30;11.18;;;9.90;99.90;;;;;;5076087;28;20112;-56
2023/03/20 10:11:28;;;;;;;19.48;10.70;;;9.90;99.90;;;;;;5074676;28;20108;-56
2023/03/20 10:14:31;;;;;;;27.65;12.07;;;9.90;99.90;;;;;;5075619;28;20051;-58
2023/03/20 10:17:20;;;;;;;21.08;10.63;;;10.00;99.90;;;;;;5062900;28;20676;-59
2023/03/20 10:19:56;;;;;;;23.08;10.43;;;10.00;99.90;;;;;;5075490;28;20048;-58
2023/03/20 10:22:30;;;;;;;17.13;10.00;;;9.90;99.90;;;;;;5076727;28;20050;-58
2023/03/20 10:25:11;;;;;;;22.55;9.65;;;9.90;99.90;;;;;;5069100;28;20040;-58
2023/03/20 10:27:45;;;;;;;26.23;10.13;;;9.80;99.90;;;;;;5073976;28;20055;-58
2023/03/20 10:30:26;;;;;;;18.25;8.93;;;9.80;99.90;;;;;;5056723;28;20077;-58
2023/03/20 10:33:07;;;;;;;21.67;9.50;;;9.70;99.90;;;;;;5062086;28;20044;-56
2023/03/20 10:35:42;;;;;;;18.65;9.68;;;9.70;99.90;;;;;;5060828;28;20037;-55
2023/03/20 10:38:43;;;;;;;22.92;9.93;;;9.80;99.90;;;;;;5074422;28;20135;-57
2023/03/20 10:41:14;;;;;;;16.63;9.57;;;9.90;99.90;;;;;;4996294;28;20041;-55
2023/03/20 10:43:42;;;;;;;19.63;10.15;;;9.90;99.90;;;;;;5048486;28;20060;-58
2023/03/20 10:46:15;;;;;;;18.33;10.57;;;9.90;99.90;;;;;;5076419;28;20866;-61
2023/03/20 10:48:47;;;;;;;24.23;10.10;;;9.90;99.90;;;;;;5072414;28;20036;-58
2023/03/20 10:51:24;;;;;;;18.58;9.63;;;9.90;99.90;;;;;;5074296;28;20048;-58
2023/03/20 10:54:00;;;;;;;20.77;10.32;;;9.90;99.90;;;;;;5070552;28;20148;-57
2023/03/20 10:56:39;;;;;;;21.92;9.73;;;10.00;99.90;;;;;;5072721;28;20202;-58
2023/03/20 10:59:18;;;;;;;17.88;10.93;;;9.90;99.90;;;;;;5094384;28;20522;-56
2023/03/20 11:01:43;;;;;;;21.63;10.05;;;9.80;99.90;;;;;;5071815;28;20411;-55
2023/03/20 11:04:09;;;;;;;16.73;10.27;;;9.80;99.90;;;;;;5077037;28;20082;-58
2023/03/20 11:07:04;;;;;;;20.85;9.63;;;9.70;99.90;;;;;;5066150;28;20188;-59
2023/03/20 11:09:31;;;;;;;;;;;9.70;99.90;;;;;;5073646;28;20060;-60
2023/03/20 11:12:00;;;;;;;23.08;10.98;;;9.60;99.90;;;;;;5071960;28;19920;-54
2023/03/20 11:14:32;;;;;;;17.40;11.45;;;9.60;99.90;;;;;;5081513;28;20036;-57
2023/03/20 11:17:02;;;;;;;19.42;11.05;;;9.60;99.90;;;;;;5078767;28;20047;-57
2023/03/20 11:19:36;;;;;;;24.23;12.10;;;9.50;99.90;;;;;;5074152;28;20263;-60
2023/03/20 11:22:25;;;;;;;19.30;10.50;;;9.50;99.90;;;;;;5072695;28;20043;-60
2023/03/20 11:24:54;;;;;;;19.35;10.98;;;9.50;99.90;;;;;;5084301;28;20031;-58
2023/03/20 11:27:30;;;;;;;20.73;12.02;;;9.50;99.90;;;;;;5076022;28;20051;-61
2023/03/20 11:29:58;;;;;;;20.45;13.05;;;9.50;99.90;;;;;;5082692;28;20101;-58
2023/03/20 11:32:38;;;;;;;22.15;13.40;;;9.50;99.90;;;;;;5075963;28;20050;-60
2023/03/20 11:35:25;;;;;;;22.58;13.30;;;9.50;99.90;;;;;;5081324;28;20044;-61
2023/03/20 11:38:05;;;;;;;29.20;14.90;;;9.40;99.90;;;;;;5081301;28;20084;-57
2023/03/20 11:40:32;;;;;;;29.77;13.38;;;9.40;99.90;;;;;;5088774;28;20270;-56
2023/03/20 11:43:01;;;;;;;23.25;12.27;;;9.30;99.90;;;;;;5076167;28;20036;-59
2023/03/20 11:45:46;;;;;;;22.50;11.85;;;9.20;99.90;;;;;;5056515;28;20209;-60
2023/03/20 11:48:35;;;;;;;21.13;11.82;;;9.20;99.90;;;;;;5063243;28;20063;-58
2023/03/20 11:51:12;;;;;;;25.85;11.65;;;9.10;99.90;;;;;;5071721;28;20044;-58
2023/03/20 11:54:01;;;;;;;22.65;12.45;;;8.60;99.90;;;;;;5058613;28;20297;-55
2023/03/20 11:56:29;;;;;;;20.98;12.82;;;9.00;99.90;;;;;;5073256;28;20036;-58
2023/03/20 11:59:17;;;;;;;22.77;13.15;;;9.00;99.90;;;;;;5061920;28;20437;-56
2023/03/20 12:01:54;;;;;;;20.20;12.27;;;9.00;99.90;;;;;;5078913;28;20032;-57
2023/03/20 12:04:40;;;;;;;24.95;12.75;;;9.00;99.90;;;;;;5075717;28;20402;-59
2023/03/20 12:07:28;;;;;;;22.45;12.68;;;8.90;99.90;;;;;;5078727;28;20589;-60
2023/03/20 12:09:54;;;;;;;18.70;12.57;;;8.90;99.90;;;;;;5090952;28;20450;-57
2023/03/20 12:12:44;;;;;;;21.63;12.13;;;8.80;99.90;;;;;;5072868;28;20075;-57
2023/03/20 12:15:50;;;;;;;19.45;12.20;;;8.90;99.90;;;;;;5080094;28;20491;-58
2023/03/20 12:18:28;;;;;;;18.27;12.18;;;8.90;99.90;;;;;;4992275;28;20056;-60
2023/03/20 12:21:30;;;;;;;15.90;12.15;;;8.80;99.90;;;;;;4994462;28;20259;-59
2023/03/20 12:24:12;;;;;;;25.42;13.35;;;8.80;99.90;;;;;;5062646;28;20052;-57
2023/03/20 12:26:53;;;;;;;18.65;13.02;;;8.80;99.90;;;;;;5061016;28;20710;-58
2023/03/20 12:29:27;;;;;;;21.08;14.52;;;8.90;99.90;;;;;;5083917;28;20401;-54
2023/03/20 12:32:11;;;;;;;22.08;13.52;;;8.90;99.90;;;;;;5083039;28;20679;-60
2023/03/20 12:34:59;;;;;;;17.42;13.73;;;8.90;99.90;;;;;;5078586;28;20040;-61
2023/03/20 12:37:25;;;;;;;24.38;13.93;;;8.90;99.90;;;;;;5072970;28;20048;-59
2023/03/20 12:39:55;;;;;;;21.08;13.70;;;8.90;99.90;;;;;;5049205;28;20051;-61
2023/03/20 12:42:52;;;;;;;22.65;14.25;;;8.90;99.90;;;;;;5083120;28;20040;-56
2023/03/20 12:45:25;;;;;;;21.60;14.02;;;8.90;99.90;;;;;;5085045;28;20058;-60
2023/03/20 12:48:17;;;;;;;19.77;14.05;;;8.90;99.90;;;;;;5081894;28;20055;-60
2023/03/20 12:51:11;;;;;;;22.85;14.57;;;8.90;99.90;;;;;;5063619;28;20422;-60
2023/03/20 12:53:45;;;;;;;20.38;14.85;;;8.90;99.90;;;;;;5076917;28;20534;-58
2023/03/20 12:56:14;;;;;;;;;;;8.90;99.90;;;;;;5080500;28;20044;-57
2023/03/20 12:58:52;;;;;;;20.42;14.88;;;8.90;99.90;;;;;;5077501;28;20371;-54
2023/03/20 13:01:39;;;;;;;22.30;16.13;;;8.90;99.90;;;;;;5081699;28;20490;-59